sensor_id;sensor_type;location;lat;lon;timestamp;P1;durP1;ratioP1;P2;durP2;ratioP2
1062;SDS011;520;50.932;6.962;2024-02-26T00:02:21;1.00;;;1.00;;
1062;SDS011;520;50.932;6.962;2024-02-26T00:05:28;1.93;;;1.10;;
1062;SDS011;520;50.932;6.962;2024-02-26T00:08:11;1.10;;;1.00;;
1062;SDS011;520;50.932;6.962;2024-02-26T00:10:44;3.53;;;1.00;;
1062;SDS011;520;50.932;6.962;2024-02-26T00:14:09;1.17;;;1.10;;
1062;SDS011;520;50.932;6.962;2024-02-26T00:16:50;0.80;;;0.80;;
1062;SDS011;520;50.932;6.962;2024-02-26T00:19:41;1.23;;;1.13;;
1062;SDS011;520;50.932;6.962;2024-02-26T00:22:51;0.93;;;0.93;;
1062;SDS011;520;50.932;6.962;2024-02-26T00:28:48;2.63;;;1.13;;
1062;SDS011;520;50.932;6.962;2024-02-26T00:31:16;1.30;;;1.00;;
1062;SDS011;520;50.932;6.962;2024-02-26T00:34:31;1.77;;;1.20;;
1062;SDS011;520;50.932;6.962;2024-02-26T00:37:01;0.93;;;0.80;;
1062;SDS011;520;50.932;6.962;2024-02-26T00:39:42;0.90;;;0.83;;
1062;SDS011;520;50.932;6.962;2024-02-26T00:42:42;0.63;;;0.63;;
1062;SDS011;520;50.932;6.962;2024-02-26T00:45:27;2.00;;;1.00;;
1062;SDS011;520;50.932;6.962;2024-02-26T00:47:54;1.20;;;0.70;;
1062;SDS011;520;50.932;6.962;2024-02-26T00:50:47;0.80;;;0.80;;
1062;SDS011;520;50.932;6.962;2024-02-26T00:53:24;0.83;;;0.73;;
1062;SDS011;520;50.932;6.962;2024-02-26T00:56:06;1.17;;;0.90;;
1062;SDS011;520;50.932;6.962;2024-02-26T00:58:45;1.07;;;0.97;;
1062;SDS011;520;50.932;6.962;2024-02-26T01:01:23;1.20;;;0.77;;
1062;SDS011;520;50.932;6.962;2024-02-26T01:04:10;1.37;;;0.60;;
1062;SDS011;520;50.932;6.962;2024-02-26T01:06:41;0.87;;;0.70;;
1062;SDS011;520;50.932;6.962;2024-02-26T01:09:18;0.90;;;0.90;;
1062;SDS011;520;50.932;6.962;2024-02-26T01:11:51;0.93;;;0.90;;
1062;SDS011;520;50.932;6.962;2024-02-26T01:14:23;0.90;;;0.90;;
1062;SDS011;520;50.932;6.962;2024-02-26T01:16:53;0.80;;;0.80;;
1062;SDS011;520;50.932;6.962;2024-02-26T01:19:40;0.80;;;0.80;;
1062;SDS011;520;50.932;6.962;2024-02-26T01:22:20;0.97;;;0.70;;
1062;SDS011;520;50.932;6.962;2024-02-26T01:24:54;1.00;;;0.63;;
1062;SDS011;520;50.932;6.962;2024-02-26T01:27:48;0.50;;;0.50;;
1062;SDS011;520;50.932;6.962;2024-02-26T01:30:40;0.70;;;0.70;;
1062;SDS011;520;50.932;6.962;2024-02-26T01:33:11;1.70;;;0.83;;
1062;SDS011;520;50.932;6.962;2024-02-26T01:35:45;1.00;;;0.90;;
1062;SDS011;520;50.932;6.962;2024-02-26T01:38:19;1.30;;;0.73;;
1062;SDS011;520;50.932;6.962;2024-02-26T01:40:56;0.73;;;0.70;;
1062;SDS011;520;50.932;6.962;2024-02-26T01:43:34;1.27;;;0.77;;
1062;SDS011;520;50.932;6.962;2024-02-26T01:46:13;1.33;;;0.60;;
1062;SDS011;520;50.932;6.962;2024-02-26T01:48:50;0.70;;;0.70;;
1062;SDS011;520;50.932;6.962;2024-02-26T01:51:31;0.70;;;0.60;;
1062;SDS011;520;50.932;6.962;2024-02-26T01:54:04;0.57;;;0.50;;
1062;SDS011;520;50.932;6.962;2024-02-26T01:56:37;0.70;;;0.70;;
1062;SDS011;520;50.932;6.962;2024-02-26T01:59:27;1.03;;;0.60;;
1062;SDS011;520;50.932;6.962;2024-02-26T02:02:07;1.27;;;0.90;;
1062;SDS011;520;50.932;6.962;2024-02-26T02:04:42;1.10;;;0.83;;
1062;SDS011;520;50.932;6.962;2024-02-26T02:07:21;1.27;;;0.60;;
1062;SDS011;520;50.932;6.962;2024-02-26T02:10:04;0.80;;;0.80;;
1062;SDS011;520;50.932;6.962;2024-02-26T02:12:37;0.80;;;0.80;;
1062;SDS011;520;50.932;6.962;2024-02-26T02:15:15;0.80;;;0.80;;
1062;SDS011;520;50.932;6.962;2024-02-26T02:17:58;1.67;;;0.70;;
1062;SDS011;520;50.932;6.962;2024-02-26T02:20:34;1.07;;;0.70;;
1062;SDS011;520;50.932;6.962;2024-02-26T02:23:24;0.70;;;0.70;;
1062;SDS011;520;50.932;6.962;2024-02-26T02:25:59;1.53;;;0.70;;
1062;SDS011;520;50.932;6.962;2024-02-26T02:28:27;0.80;;;0.80;;
1062;SDS011;520;50.932;6.962;2024-02-26T02:31:11;0.70;;;0.70;;
1062;SDS011;520;50.932;6.962;2024-02-26T02:33:41;0.70;;;0.70;;
1062;SDS011;520;50.932;6.962;2024-02-26T02:36:30;1.90;;;0.70;;
1062;SDS011;520;50.932;6.962;2024-02-26T02:39:08;0.67;;;0.67;;
1062;SDS011;520;50.932;6.962;2024-02-26T02:41:38;1.10;;;0.70;;
1062;SDS011;520;50.932;6.962;2024-02-26T02:44:25;0.77;;;0.77;;
1062;SDS011;520;50.932;6.962;2024-02-26T02:47:05;1.10;;;1.00;;
1062;SDS011;520;50.932;6.962;2024-02-26T02:49:41;1.50;;;0.77;;
1062;SDS011;520;50.932;6.962;2024-02-26T02:52:12;0.73;;;0.60;;
1062;SDS011;520;50.932;6.962;2024-02-26T02:55:07;1.10;;;0.70;;
1062;SDS011;520;50.932;6.962;2024-02-26T02:57:41;0.93;;;0.93;;
1062;SDS011;520;50.932;6.962;2024-02-26T03:00:24;0.70;;;0.70;;
1062;SDS011;520;50.932;6.962;2024-02-26T03:02:57;1.30;;;0.73;;
1062;SDS011;520;50.932;6.962;2024-02-26T03:05:32;0.67;;;0.60;;
1062;SDS011;520;50.932;6.962;2024-02-26T03:08:21;3.03;;;0.70;;
1062;SDS011;520;50.932;6.962;2024-02-26T03:10:59;0.60;;;0.60;;
1062;SDS011;520;50.932;6.962;2024-02-26T03:13:35;0.70;;;0.70;;
1062;SDS011;520;50.932;6.962;2024-02-26T03:16:11;0.60;;;0.60;;
1062;SDS011;520;50.932;6.962;2024-02-26T03:18:43;0.90;;;0.90;;
1062;SDS011;520;50.932;6.962;2024-02-26T03:21:36;0.77;;;0.73;;
1062;SDS011;520;50.932;6.962;2024-02-26T03:24:04;0.60;;;0.60;;
1062;SDS011;520;50.932;6.962;2024-02-26T03:26:49;1.67;;;0.70;;
1062;SDS011;520;50.932;6.962;2024-02-26T03:29:34;0.97;;;0.77;;
1062;SDS011;520;50.932;6.962;2024-02-26T03:32:12;0.93;;;0.70;;
1062;SDS011;520;50.932;6.962;2024-02-26T03:35:02;0.93;;;0.80;;
1062;SDS011;520;50.932;6.962;2024-02-26T03:37:52;1.37;;;0.70;;
1062;SDS011;520;50.932;6.962;2024-02-26T03:40:41;0.50;;;0.50;;
1062;SDS011;520;50.932;6.962;2024-02-26T03:43:44;1.10;;;0.80;;
1062;SDS011;520;50.932;6.962;2024-02-26T03:46:25;0.70;;;0.60;;
1062;SDS011;520;50.932;6.962;2024-02-26T03:49:21;0.70;;;0.70;;
1062;SDS011;520;50.932;6.962;2024-02-26T03:52:25;0.80;;;0.70;;
1062;SDS011;520;50.932;6.962;2024-02-26T03:55:04;1.00;;;0.70;;
1062;SDS011;520;50.932;6.962;2024-02-26T03:57:42;0.77;;;0.70;;
1062;SDS011;520;50.932;6.962;2024-02-26T04:00:47;1.13;;;0.70;;
1062;SDS011;520;50.932;6.962;2024-02-26T04:04:03;1.37;;;1.13;;
1062;SDS011;520;50.932;6.962;2024-02-26T04:06:54;0.80;;;0.80;;
1062;SDS011;520;50.932;6.962;2024-02-26T04:09:59;0.70;;;0.70;;
1062;SDS011;520;50.932;6.962;2024-02-26T04:12:47;1.10;;;0.90;;
1062;SDS011;520;50.932;6.962;2024-02-26T04:15:31;0.70;;;0.70;;
1062;SDS011;520;50.932;6.962;2024-02-26T04:18:11;0.73;;;0.73;;
1062;SDS011;520;50.932;6.962;2024-02-26T04:20:44;1.57;;;0.90;;
1062;SDS011;520;50.932;6.962;2024-02-26T04:23:26;0.60;;;0.60;;
1062;SDS011;520;50.932;6.962;2024-02-26T04:26:03;0.83;;;0.83;;
1062;SDS011;520;50.932;6.962;2024-02-26T04:31:45;1.17;;;0.60;;
1062;SDS011;520;50.932;6.962;2024-02-26T04:34:46;0.83;;;0.60;;
1062;SDS011;520;50.932;6.962;2024-02-26T04:37:30;1.50;;;0.77;;
1062;SDS011;520;50.932;6.962;2024-02-26T04:40:14;1.67;;;0.97;;
1062;SDS011;520;50.932;6.962;2024-02-26T04:43:01;1.13;;;1.07;;
1062;SDS011;520;50.932;6.962;2024-02-26T04:45:37;1.40;;;0.80;;
1062;SDS011;520;50.932;6.962;2024-02-26T04:48:21;0.93;;;0.93;;
1062;SDS011;520;50.932;6.962;2024-02-26T04:50:55;1.03;;;0.83;;
1062;SDS011;520;50.932;6.962;2024-02-26T04:53:43;0.87;;;0.80;;
1062;SDS011;520;50.932;6.962;2024-02-26T04:56:18;1.10;;;1.00;;
1062;SDS011;520;50.932;6.962;2024-02-26T04:59:03;1.23;;;0.93;;
1062;SDS011;520;50.932;6.962;2024-02-26T05:01:44;1.30;;;1.13;;
1062;SDS011;520;50.932;6.962;2024-02-26T05:04:23;1.17;;;0.70;;
1062;SDS011;520;50.932;6.962;2024-02-26T05:09:46;1.63;;;1.37;;
1062;SDS011;520;50.932;6.962;2024-02-26T05:12:33;2.70;;;1.63;;
1062;SDS011;520;50.932;6.962;2024-02-26T05:15:23;0.93;;;0.87;;
1062;SDS011;520;50.932;6.962;2024-02-26T05:18:12;0.90;;;0.90;;
1062;SDS011;520;50.932;6.962;2024-02-26T05:20:57;1.17;;;0.80;;
1062;SDS011;520;50.932;6.962;2024-02-26T05:23:45;2.10;;;0.97;;
1062;SDS011;520;50.932;6.962;2024-02-26T05:26:22;1.63;;;0.80;;
1062;SDS011;520;50.932;6.962;2024-02-26T05:36:17;1.17;;;0.90;;
1062;SDS011;520;50.932;6.962;2024-02-26T05:38:55;2.07;;;1.10;;
1062;SDS011;520;50.932;6.962;2024-02-26T05:41:43;1.47;;;0.93;;
1062;SDS011;520;50.932;6.962;2024-02-26T05:44:22;0.93;;;0.90;;
1062;SDS011;520;50.932;6.962;2024-02-26T05:47:29;1.87;;;1.40;;
1062;SDS011;520;50.932;6.962;2024-02-26T05:50:12;1.00;;;1.00;;
1062;SDS011;520;50.932;6.962;2024-02-26T05:52:54;2.00;;;1.20;;
1062;SDS011;520;50.932;6.962;2024-02-26T05:55:38;1.53;;;1.23;;
1062;SDS011;520;50.932;6.962;2024-02-26T05:58:16;1.50;;;1.00;;
1062;SDS011;520;50.932;6.962;2024-02-26T06:00:51;1.13;;;1.03;;
1062;SDS011;520;50.932;6.962;2024-02-26T06:06:35;3.17;;;1.10;;
1062;SDS011;520;50.932;6.962;2024-02-26T06:09:23;1.20;;;1.10;;
1062;SDS011;520;50.932;6.962;2024-02-26T06:11:55;1.10;;;1.00;;
1062;SDS011;520;50.932;6.962;2024-02-26T06:14:31;1.90;;;1.40;;
1062;SDS011;520;50.932;6.962;2024-02-26T06:20:09;1.27;;;1.17;;
1062;SDS011;520;50.932;6.962;2024-02-26T06:23:01;1.70;;;1.20;;
1062;SDS011;520;50.932;6.962;2024-02-26T06:26:28;2.10;;;1.23;;
1062;SDS011;520;50.932;6.962;2024-02-26T06:35:32;1.37;;;1.33;;
1062;SDS011;520;50.932;6.962;2024-02-26T06:42:29;2.23;;;1.57;;
1062;SDS011;520;50.932;6.962;2024-02-26T06:49:05;1.57;;;1.47;;
1062;SDS011;520;50.932;6.962;2024-02-26T06:52:08;1.13;;;1.00;;
1062;SDS011;520;50.932;6.962;2024-02-26T07:40:19;2.60;;;1.67;;
1062;SDS011;520;50.932;6.962;2024-02-26T07:50:21;4.43;;;1.53;;
1062;SDS011;520;50.932;6.962;2024-02-26T08:00:00;1.83;;;1.73;;
1062;SDS011;520;50.932;6.962;2024-02-26T08:06:25;1.60;;;1.50;;
1062;SDS011;520;50.932;6.962;2024-02-26T08:23:39;1.57;;;1.30;;
1062;SDS011;520;50.932;6.962;2024-02-26T08:26:51;1.53;;;1.43;;
1062;SDS011;520;50.932;6.962;2024-02-26T08:29:46;1.57;;;1.47;;
1062;SDS011;520;50.932;6.962;2024-02-26T10:19:35;3.30;;;2.10;;
1062;SDS011;520;50.932;6.962;2024-02-26T11:31:31;4.13;;;1.90;;
1062;SDS011;520;50.932;6.962;2024-02-26T11:38:23;1.97;;;1.83;;
1062;SDS011;520;50.932;6.962;2024-02-26T11:41:15;2.63;;;2.40;;
1062;SDS011;520;50.932;6.962;2024-02-26T11:44:02;3.83;;;2.57;;
1062;SDS011;520;50.932;6.962;2024-02-26T11:57:51;2.17;;;2.07;;
1062;SDS011;520;50.932;6.962;2024-02-26T12:01:02;2.77;;;2.57;;
1062;SDS011;520;50.932;6.962;2024-02-26T12:16:05;3.10;;;2.03;;
1062;SDS011;520;50.932;6.962;2024-02-26T12:19:03;2.43;;;2.23;;
1062;SDS011;520;50.932;6.962;2024-02-26T12:39:47;3.50;;;2.23;;
1062;SDS011;520;50.932;6.962;2024-02-26T13:32:25;2.70;;;2.47;;
1062;SDS011;520;50.932;6.962;2024-02-26T14:07:52;6.03;;;3.43;;
1062;SDS011;520;50.932;6.962;2024-02-26T14:10:39;4.23;;;3.30;;
1062;SDS011;520;50.932;6.962;2024-02-26T14:30:33;4.27;;;3.87;;
1062;SDS011;520;50.932;6.962;2024-02-26T14:34:01;4.17;;;3.27;;
1062;SDS011;520;50.932;6.962;2024-02-26T14:40:14;4.13;;;3.17;;
1062;SDS011;520;50.932;6.962;2024-02-26T14:43:03;6.63;;;5.23;;
1062;SDS011;520;50.932;6.962;2024-02-26T15:03:27;6.33;;;4.10;;
1062;SDS011;520;50.932;6.962;2024-02-26T15:22:33;6.97;;;4.70;;
1062;SDS011;520;50.932;6.962;2024-02-26T15:25:46;7.13;;;4.80;;
1062;SDS011;520;50.932;6.962;2024-02-26T15:32:35;7.00;;;6.30;;
1062;SDS011;520;50.932;6.962;2024-02-26T15:54:52;8.40;;;5.70;;
1062;SDS011;520;50.932;6.962;2024-02-26T16:01:22;6.30;;;5.70;;
1062;SDS011;520;50.932;6.962;2024-02-26T16:11:50;7.50;;;6.57;;
1062;SDS011;520;50.932;6.962;2024-02-26T16:15:14;9.70;;;7.03;;
1062;SDS011;520;50.932;6.962;2024-02-26T16:27:47;8.23;;;7.07;;
1062;SDS011;520;50.932;6.962;2024-02-26T16:38:03;9.90;;;7.73;;
1062;SDS011;520;50.932;6.962;2024-02-26T17:31:26;8.87;;;7.20;;
1062;SDS011;520;50.932;6.962;2024-02-26T17:34:28;8.27;;;7.37;;
1062;SDS011;520;50.932;6.962;2024-02-26T17:37:35;8.00;;;6.90;;
1062;SDS011;520;50.932;6.962;2024-02-26T17:55:32;10.10;;;7.30;;
1062;SDS011;520;50.932;6.962;2024-02-26T17:58:32;8.47;;;7.40;;
1062;SDS011;520;50.932;6.962;2024-02-26T18:01:40;6.83;;;6.13;;
1062;SDS011;520;50.932;6.962;2024-02-26T18:04:43;8.23;;;7.10;;
1062;SDS011;520;50.932;6.962;2024-02-26T18:10:25;8.00;;;7.20;;
1062;SDS011;520;50.932;6.962;2024-02-26T18:13:31;8.43;;;6.47;;
1062;SDS011;520;50.932;6.962;2024-02-26T18:16:32;9.33;;;6.47;;
1062;SDS011;520;50.932;6.962;2024-02-26T18:19:27;6.13;;;5.30;;
1062;SDS011;520;50.932;6.962;2024-02-26T18:25:22;5.50;;;5.00;;
1062;SDS011;520;50.932;6.962;2024-02-26T18:31:29;9.60;;;5.60;;
1062;SDS011;520;50.932;6.962;2024-02-26T18:38:13;5.90;;;5.30;;
1062;SDS011;520;50.932;6.962;2024-02-26T18:46:30;6.13;;;5.53;;
1062;SDS011;520;50.932;6.962;2024-02-26T18:49:23;5.93;;;5.43;;
1062;SDS011;520;50.932;6.962;2024-02-26T18:54:55;6.10;;;5.10;;
1062;SDS011;520;50.932;6.962;2024-02-26T18:58:12;6.07;;;5.30;;
1062;SDS011;520;50.932;6.962;2024-02-26T19:01:05;8.13;;;5.60;;
1062;SDS011;520;50.932;6.962;2024-02-26T19:10:50;6.30;;;5.47;;
1062;SDS011;520;50.932;6.962;2024-02-26T19:16:29;7.07;;;5.60;;
1062;SDS011;520;50.932;6.962;2024-02-26T19:25:14;6.40;;;5.60;;
1062;SDS011;520;50.932;6.962;2024-02-26T19:35:02;11.03;;;5.93;;
1062;SDS011;520;50.932;6.962;2024-02-26T19:37:32;8.13;;;6.20;;
1062;SDS011;520;50.932;6.962;2024-02-26T19:54:05;7.57;;;6.67;;
1062;SDS011;520;50.932;6.962;2024-02-26T19:57:15;7.43;;;6.17;;
1062;SDS011;520;50.932;6.962;2024-02-26T20:00:21;7.10;;;6.13;;
1062;SDS011;520;50.932;6.962;2024-02-26T20:03:27;7.33;;;6.53;;
1062;SDS011;520;50.932;6.962;2024-02-26T20:06:45;5.70;;;5.20;;
1062;SDS011;520;50.932;6.962;2024-02-26T20:09:40;7.07;;;6.37;;
1062;SDS011;520;50.932;6.962;2024-02-26T20:12:24;7.30;;;6.33;;
1062;SDS011;520;50.932;6.962;2024-02-26T20:15:03;6.63;;;6.00;;
1062;SDS011;520;50.932;6.962;2024-02-26T20:21:21;6.60;;;5.60;;
1062;SDS011;520;50.932;6.962;2024-02-26T20:24:34;5.87;;;5.27;;
1062;SDS011;520;50.932;6.962;2024-02-26T20:27:22;6.50;;;5.90;;
1062;SDS011;520;50.932;6.962;2024-02-26T20:30:06;5.60;;;5.07;;
1062;SDS011;520;50.932;6.962;2024-02-26T20:33:13;5.70;;;5.10;;
1062;SDS011;520;50.932;6.962;2024-02-26T20:35:52;6.57;;;5.57;;
1062;SDS011;520;50.932;6.962;2024-02-26T20:38:32;6.17;;;5.67;;
1062;SDS011;520;50.932;6.962;2024-02-26T20:44:25;5.70;;;5.20;;
1062;SDS011;520;50.932;6.962;2024-02-26T20:57:51;5.90;;;5.03;;
1062;SDS011;520;50.932;6.962;2024-02-26T21:00:42;4.53;;;4.13;;
1062;SDS011;520;50.932;6.962;2024-02-26T21:03:24;4.53;;;4.13;;
1062;SDS011;520;50.932;6.962;2024-02-26T21:06:30;5.17;;;4.77;;
1062;SDS011;520;50.932;6.962;2024-02-26T21:09:14;4.57;;;3.80;;
1062;SDS011;520;50.932;6.962;2024-02-26T21:12:20;4.17;;;3.67;;
1062;SDS011;520;50.932;6.962;2024-02-26T21:15:18;4.10;;;3.63;;
1062;SDS011;520;50.932;6.962;2024-02-26T21:18:25;4.10;;;3.80;;
1062;SDS011;520;50.932;6.962;2024-02-26T21:25:06;5.53;;;4.17;;
1062;SDS011;520;50.932;6.962;2024-02-26T21:34:10;3.47;;;3.10;;
1062;SDS011;520;50.932;6.962;2024-02-26T21:37:05;3.40;;;3.10;;
1062;SDS011;520;50.932;6.962;2024-02-26T21:43:11;4.03;;;3.50;;
1062;SDS011;520;50.932;6.962;2024-02-26T21:46:24;3.70;;;3.37;;
1062;SDS011;520;50.932;6.962;2024-02-26T21:59:57;3.10;;;2.80;;
1062;SDS011;520;50.932;6.962;2024-02-26T22:02:44;3.10;;;2.90;;
1062;SDS011;520;50.932;6.962;2024-02-26T22:05:46;3.77;;;3.37;;
1062;SDS011;520;50.932;6.962;2024-02-26T22:08:30;3.37;;;3.07;;
1062;SDS011;520;50.932;6.962;2024-02-26T22:11:20;3.20;;;2.90;;
1062;SDS011;520;50.932;6.962;2024-02-26T22:21:05;3.30;;;3.00;;
1062;SDS011;520;50.932;6.962;2024-02-26T22:23:55;3.20;;;2.90;;
1062;SDS011;520;50.932;6.962;2024-02-26T22:26:48;3.93;;;3.63;;
1062;SDS011;520;50.932;6.962;2024-02-26T22:36:47;4.23;;;3.90;;
1062;SDS011;520;50.932;6.962;2024-02-26T22:39:16;4.00;;;3.67;;
1062;SDS011;520;50.932;6.962;2024-02-26T22:42:05;3.80;;;3.37;;
1062;SDS011;520;50.932;6.962;2024-02-26T22:45:16;4.40;;;4.00;;
1062;SDS011;520;50.932;6.962;2024-02-26T22:52:04;4.23;;;3.83;;
1062;SDS011;520;50.932;6.962;2024-02-26T23:02:00;4.40;;;4.07;;
1062;SDS011;520;50.932;6.962;2024-02-26T23:11:47;5.00;;;4.60;;
1062;SDS011;520;50.932;6.962;2024-02-26T23:14:47;4.73;;;4.23;;
1062;SDS011;520;50.932;6.962;2024-02-26T23:17:23;5.63;;;5.13;;
1062;SDS011;520;50.932;6.962;2024-02-26T23:29:32;5.03;;;4.50;;
1062;SDS011;520;50.932;6.962;2024-02-26T23:32:21;7.77;;;5.53;;
1062;SDS011;520;50.932;6.962;2024-02-26T23:38:55;8.13;;;5.80;;
1062;SDS011;520;50.932;6.962;2024-02-26T23:42:21;6.47;;;5.87;;
1062;SDS011;520;50.932;6.962;2024-02-26T23:48:51;5.20;;;4.70;;
1062;SDS011;520;50.932;6.962;2024-02-26T23:52:05;6.53;;;5.77;;
1062;SDS011;520;50.932;6.962;2024-02-26T23:55:06;6.63;;;5.47;;
1062;SDS011;520;50.932;6.962;2024-02-26T23:57:53;6.60;;;5.83;;
